sensor_id;sensor_type;location;lat;lon;timestamp;P1;durP1;ratioP1;P2;durP2;ratioP2
11344;SDS011;5727;42.600;23.028;2024-03-25T00:00:29;2.83;;;2.63;;
11344;SDS011;5727;42.600;23.028;2024-03-25T00:02:56;2.90;;;2.70;;
11344;SDS011;5727;42.600;23.028;2024-03-25T00:05:23;2.53;;;2.43;;
11344;SDS011;5727;42.600;23.028;2024-03-25T00:07:50;2.83;;;2.73;;
11344;SDS011;5727;42.600;23.028;2024-03-25T00:10:18;2.60;;;2.50;;
11344;SDS011;5727;42.600;23.028;2024-03-25T00:12:45;2.80;;;2.67;;
11344;SDS011;5727;42.600;23.028;2024-03-25T00:15:12;2.53;;;2.43;;
11344;SDS011;5727;42.600;23.028;2024-03-25T00:17:38;2.67;;;2.57;;
11344;SDS011;5727;42.600;23.028;2024-03-25T00:20:08;2.50;;;2.40;;
11344;SDS011;5727;42.600;23.028;2024-03-25T00:22:34;2.80;;;2.60;;
11344;SDS011;5727;42.600;23.028;2024-03-25T00:25:01;2.70;;;2.60;;
11344;SDS011;5727;42.600;23.028;2024-03-25T00:27:28;3.10;;;2.90;;
11344;SDS011;5727;42.600;23.028;2024-03-25T00:29:55;2.93;;;2.73;;
11344;SDS011;5727;42.600;23.028;2024-03-25T00:32:21;3.23;;;3.07;;
11344;SDS011;5727;42.600;23.028;2024-03-25T00:34:48;3.53;;;3.33;;
11344;SDS011;5727;42.600;23.028;2024-03-25T00:37:15;3.53;;;3.33;;
11344;SDS011;5727;42.600;23.028;2024-03-25T00:39:42;3.10;;;2.90;;
11344;SDS011;5727;42.600;23.028;2024-03-25T00:42:08;3.30;;;3.10;;
11344;SDS011;5727;42.600;23.028;2024-03-25T00:44:35;2.97;;;2.77;;
11344;SDS011;5727;42.600;23.028;2024-03-25T00:47:01;2.70;;;2.60;;
11344;SDS011;5727;42.600;23.028;2024-03-25T00:49:28;2.83;;;2.73;;
11344;SDS011;5727;42.600;23.028;2024-03-25T00:51:55;3.00;;;2.90;;
11344;SDS011;5727;42.600;23.028;2024-03-25T00:54:23;3.10;;;3.00;;
11344;SDS011;5727;42.600;23.028;2024-03-25T00:56:49;3.07;;;2.97;;
11344;SDS011;5727;42.600;23.028;2024-03-25T00:59:16;3.60;;;3.33;;
11344;SDS011;5727;42.600;23.028;2024-03-25T01:01:42;3.97;;;3.67;;
11344;SDS011;5727;42.600;23.028;2024-03-25T01:04:09;4.73;;;4.33;;
11344;SDS011;5727;42.600;23.028;2024-03-25T01:06:35;5.33;;;4.83;;
11344;SDS011;5727;42.600;23.028;2024-03-25T01:09:02;5.00;;;4.70;;
11344;SDS011;5727;42.600;23.028;2024-03-25T01:11:30;4.33;;;4.03;;
11344;SDS011;5727;42.600;23.028;2024-03-25T01:13:57;3.83;;;3.53;;
11344;SDS011;5727;42.600;23.028;2024-03-25T01:16:23;4.53;;;4.03;;
11344;SDS011;5727;42.600;23.028;2024-03-25T01:18:50;3.73;;;3.43;;
11344;SDS011;5727;42.600;23.028;2024-03-25T01:21:16;4.07;;;3.77;;
11344;SDS011;5727;42.600;23.028;2024-03-25T01:23:43;3.50;;;3.30;;
11344;SDS011;5727;42.600;23.028;2024-03-25T01:26:08;3.30;;;3.10;;
11344;SDS011;5727;42.600;23.028;2024-03-25T01:28:37;3.43;;;3.23;;
11344;SDS011;5727;42.600;23.028;2024-03-25T01:31:03;3.37;;;3.13;;
11344;SDS011;5727;42.600;23.028;2024-03-25T01:33:30;3.60;;;3.40;;
11344;SDS011;5727;42.600;23.028;2024-03-25T01:35:56;3.70;;;3.40;;
11344;SDS011;5727;42.600;23.028;2024-03-25T01:38:23;3.90;;;3.70;;
11344;SDS011;5727;42.600;23.028;2024-03-25T01:40:49;4.17;;;3.87;;
11344;SDS011;5727;42.600;23.028;2024-03-25T01:43:16;4.40;;;4.00;;
11344;SDS011;5727;42.600;23.028;2024-03-25T01:45:43;4.33;;;4.03;;
11344;SDS011;5727;42.600;23.028;2024-03-25T01:48:10;4.27;;;3.97;;
11344;SDS011;5727;42.600;23.028;2024-03-25T01:50:39;4.33;;;4.00;;
11344;SDS011;5727;42.600;23.028;2024-03-25T01:53:08;4.10;;;3.70;;
11344;SDS011;5727;42.600;23.028;2024-03-25T01:55:35;3.87;;;3.60;;
11344;SDS011;5727;42.600;23.028;2024-03-25T01:58:03;4.77;;;4.17;;
11344;SDS011;5727;42.600;23.028;2024-03-25T02:00:30;4.37;;;4.07;;
11344;SDS011;5727;42.600;23.028;2024-03-25T02:03:00;4.80;;;4.33;;
11344;SDS011;5727;42.600;23.028;2024-03-25T02:05:26;6.10;;;4.30;;
11344;SDS011;5727;42.600;23.028;2024-03-25T02:07:53;4.63;;;4.23;;
11344;SDS011;5727;42.600;23.028;2024-03-25T02:10:20;4.80;;;4.37;;
11344;SDS011;5727;42.600;23.028;2024-03-25T02:12:48;5.47;;;4.63;;
11344;SDS011;5727;42.600;23.028;2024-03-25T02:15:15;6.53;;;5.20;;
11344;SDS011;5727;42.600;23.028;2024-03-25T02:17:43;6.23;;;5.63;;
11344;SDS011;5727;42.600;23.028;2024-03-25T02:20:11;7.77;;;6.80;;
11344;SDS011;5727;42.600;23.028;2024-03-25T02:22:41;12.87;;;9.23;;
11344;SDS011;5727;42.600;23.028;2024-03-25T02:25:07;12.33;;;8.97;;
11344;SDS011;5727;42.600;23.028;2024-03-25T02:27:37;13.77;;;9.30;;
11344;SDS011;5727;42.600;23.028;2024-03-25T02:30:04;13.33;;;9.47;;
11344;SDS011;5727;42.600;23.028;2024-03-25T02:32:32;14.60;;;10.07;;
11344;SDS011;5727;42.600;23.028;2024-03-25T02:34:58;14.87;;;9.67;;
11344;SDS011;5727;42.600;23.028;2024-03-25T02:37:25;15.93;;;9.77;;
11344;SDS011;5727;42.600;23.028;2024-03-25T02:39:52;13.47;;;9.10;;
11344;SDS011;5727;42.600;23.028;2024-03-25T02:42:21;13.80;;;8.30;;
11344;SDS011;5727;42.600;23.028;2024-03-25T02:44:49;10.57;;;7.03;;
11344;SDS011;5727;42.600;23.028;2024-03-25T02:47:16;10.73;;;7.33;;
11344;SDS011;5727;42.600;23.028;2024-03-25T02:49:43;7.40;;;6.30;;
11344;SDS011;5727;42.600;23.028;2024-03-25T02:52:09;5.87;;;5.27;;
11344;SDS011;5727;42.600;23.028;2024-03-25T02:54:35;6.03;;;5.17;;
11344;SDS011;5727;42.600;23.028;2024-03-25T02:57:02;4.20;;;3.90;;
11344;SDS011;5727;42.600;23.028;2024-03-25T02:59:28;5.20;;;4.80;;
11344;SDS011;5727;42.600;23.028;2024-03-25T03:01:57;4.87;;;4.47;;
11344;SDS011;5727;42.600;23.028;2024-03-25T03:04:22;3.77;;;3.57;;
11344;SDS011;5727;42.600;23.028;2024-03-25T03:06:49;4.27;;;3.87;;
11344;SDS011;5727;42.600;23.028;2024-03-25T03:09:15;4.33;;;3.93;;
11344;SDS011;5727;42.600;23.028;2024-03-25T03:11:42;3.77;;;3.40;;
11344;SDS011;5727;42.600;23.028;2024-03-25T03:14:08;3.70;;;3.50;;
11344;SDS011;5727;42.600;23.028;2024-03-25T03:16:35;3.40;;;3.20;;
11344;SDS011;5727;42.600;23.028;2024-03-25T03:19:02;2.63;;;2.53;;
11344;SDS011;5727;42.600;23.028;2024-03-25T03:21:29;3.00;;;2.90;;
11344;SDS011;5727;42.600;23.028;2024-03-25T03:23:56;2.77;;;2.67;;
11344;SDS011;5727;42.600;23.028;2024-03-25T03:26:23;3.03;;;2.93;;
11344;SDS011;5727;42.600;23.028;2024-03-25T03:28:52;3.20;;;3.00;;
11344;SDS011;5727;42.600;23.028;2024-03-25T03:31:19;3.00;;;2.90;;
11344;SDS011;5727;42.600;23.028;2024-03-25T03:33:47;2.87;;;2.77;;
11344;SDS011;5727;42.600;23.028;2024-03-25T03:36:15;3.07;;;2.87;;
11344;SDS011;5727;42.600;23.028;2024-03-25T03:38:42;2.60;;;2.50;;
11344;SDS011;5727;42.600;23.028;2024-03-25T03:41:08;2.80;;;2.70;;
11344;SDS011;5727;42.600;23.028;2024-03-25T03:43:35;2.50;;;2.40;;
11344;SDS011;5727;42.600;23.028;2024-03-25T03:46:01;2.70;;;2.60;;
11344;SDS011;5727;42.600;23.028;2024-03-25T03:48:28;2.87;;;2.77;;
11344;SDS011;5727;42.600;23.028;2024-03-25T03:50:54;2.60;;;2.50;;
11344;SDS011;5727;42.600;23.028;2024-03-25T03:53:23;2.70;;;2.60;;
11344;SDS011;5727;42.600;23.028;2024-03-25T03:55:55;2.60;;;2.50;;
11344;SDS011;5727;42.600;23.028;2024-03-25T03:58:24;2.70;;;2.60;;
11344;SDS011;5727;42.600;23.028;2024-03-25T04:00:50;2.80;;;2.70;;
11344;SDS011;5727;42.600;23.028;2024-03-25T04:03:18;2.70;;;2.60;;
11344;SDS011;5727;42.600;23.028;2024-03-25T04:05:44;2.33;;;2.23;;
11344;SDS011;5727;42.600;23.028;2024-03-25T04:08:11;2.53;;;2.43;;
11344;SDS011;5727;42.600;23.028;2024-03-25T04:10:39;2.80;;;2.70;;
11344;SDS011;5727;42.600;23.028;2024-03-25T04:13:06;2.60;;;2.50;;
11344;SDS011;5727;42.600;23.028;2024-03-25T04:15:33;2.90;;;2.70;;
11344;SDS011;5727;42.600;23.028;2024-03-25T04:18:00;2.80;;;2.70;;
11344;SDS011;5727;42.600;23.028;2024-03-25T04:20:26;3.00;;;2.90;;
11344;SDS011;5727;42.600;23.028;2024-03-25T04:22:53;2.70;;;2.60;;
11344;SDS011;5727;42.600;23.028;2024-03-25T04:25:20;2.80;;;2.70;;
11344;SDS011;5727;42.600;23.028;2024-03-25T04:27:49;2.60;;;2.50;;
11344;SDS011;5727;42.600;23.028;2024-03-25T04:30:14;2.60;;;2.50;;
11344;SDS011;5727;42.600;23.028;2024-03-25T04:32:42;3.10;;;2.90;;
11344;SDS011;5727;42.600;23.028;2024-03-25T04:35:08;3.60;;;3.40;;
11344;SDS011;5727;42.600;23.028;2024-03-25T04:37:35;3.33;;;3.13;;
11344;SDS011;5727;42.600;23.028;2024-03-25T04:40:01;3.40;;;3.20;;
11344;SDS011;5727;42.600;23.028;2024-03-25T04:42:27;3.40;;;3.20;;
11344;SDS011;5727;42.600;23.028;2024-03-25T04:44:55;3.40;;;3.20;;
11344;SDS011;5727;42.600;23.028;2024-03-25T04:47:21;3.50;;;3.30;;
11344;SDS011;5727;42.600;23.028;2024-03-25T04:49:47;3.53;;;3.33;;
11344;SDS011;5727;42.600;23.028;2024-03-25T04:52:13;3.67;;;3.47;;
11344;SDS011;5727;42.600;23.028;2024-03-25T04:54:41;3.93;;;3.60;;
11344;SDS011;5727;42.600;23.028;2024-03-25T04:57:07;4.90;;;4.50;;
11344;SDS011;5727;42.600;23.028;2024-03-25T04:59:33;4.77;;;4.37;;
11344;SDS011;5727;42.600;23.028;2024-03-25T05:02:00;5.33;;;4.27;;
11344;SDS011;5727;42.600;23.028;2024-03-25T05:04:26;4.83;;;4.43;;
11344;SDS011;5727;42.600;23.028;2024-03-25T05:06:52;5.30;;;4.87;;
11344;SDS011;5727;42.600;23.028;2024-03-25T05:09:18;5.40;;;4.90;;
11344;SDS011;5727;42.600;23.028;2024-03-25T05:11:44;4.80;;;4.40;;
11344;SDS011;5727;42.600;23.028;2024-03-25T05:14:10;5.27;;;4.87;;
11344;SDS011;5727;42.600;23.028;2024-03-25T05:16:36;6.13;;;5.53;;
11344;SDS011;5727;42.600;23.028;2024-03-25T05:19:04;6.90;;;5.37;;
11344;SDS011;5727;42.600;23.028;2024-03-25T05:21:29;6.00;;;5.37;;
11344;SDS011;5727;42.600;23.028;2024-03-25T05:23:55;6.10;;;5.60;;
11344;SDS011;5727;42.600;23.028;2024-03-25T05:26:21;6.30;;;5.70;;
11344;SDS011;5727;42.600;23.028;2024-03-25T05:28:51;6.93;;;6.23;;
11344;SDS011;5727;42.600;23.028;2024-03-25T05:31:18;7.23;;;6.00;;
11344;SDS011;5727;42.600;23.028;2024-03-25T05:33:44;6.60;;;5.90;;
11344;SDS011;5727;42.600;23.028;2024-03-25T05:36:11;7.37;;;6.50;;
11344;SDS011;5727;42.600;23.028;2024-03-25T05:38:37;8.80;;;6.27;;
11344;SDS011;5727;42.600;23.028;2024-03-25T05:41:03;7.23;;;6.60;;
11344;SDS011;5727;42.600;23.028;2024-03-25T05:43:29;7.30;;;6.60;;
11344;SDS011;5727;42.600;23.028;2024-03-25T05:45:55;6.63;;;6.00;;
11344;SDS011;5727;42.600;23.028;2024-03-25T05:48:22;7.60;;;6.80;;
11344;SDS011;5727;42.600;23.028;2024-03-25T05:50:56;7.83;;;6.27;;
11344;SDS011;5727;42.600;23.028;2024-03-25T05:53:27;7.27;;;6.57;;
11344;SDS011;5727;42.600;23.028;2024-03-25T05:55:54;7.40;;;6.63;;
11344;SDS011;5727;42.600;23.028;2024-03-25T05:58:20;7.70;;;6.87;;
11344;SDS011;5727;42.600;23.028;2024-03-25T06:00:49;7.47;;;6.77;;
11344;SDS011;5727;42.600;23.028;2024-03-25T06:03:15;9.17;;;7.40;;
11344;SDS011;5727;42.600;23.028;2024-03-25T06:05:41;9.27;;;7.97;;
11344;SDS011;5727;42.600;23.028;2024-03-25T06:08:08;12.03;;;8.60;;
11344;SDS011;5727;42.600;23.028;2024-03-25T06:10:37;7.97;;;6.53;;
11344;SDS011;5727;42.600;23.028;2024-03-25T06:13:03;9.23;;;7.07;;
11344;SDS011;5727;42.600;23.028;2024-03-25T06:15:29;7.33;;;6.63;;
11344;SDS011;5727;42.600;23.028;2024-03-25T06:17:55;7.90;;;6.80;;
11344;SDS011;5727;42.600;23.028;2024-03-25T06:20:21;10.27;;;7.57;;
11344;SDS011;5727;42.600;23.028;2024-03-25T06:22:47;8.33;;;7.30;;
11344;SDS011;5727;42.600;23.028;2024-03-25T06:25:13;8.07;;;7.23;;
11344;SDS011;5727;42.600;23.028;2024-03-25T06:27:40;8.73;;;7.50;;
11344;SDS011;5727;42.600;23.028;2024-03-25T06:30:07;8.40;;;7.30;;
11344;SDS011;5727;42.600;23.028;2024-03-25T06:32:51;7.40;;;6.70;;
11344;SDS011;5727;42.600;23.028;2024-03-25T06:35:36;7.67;;;6.97;;
11344;SDS011;5727;42.600;23.028;2024-03-25T06:38:02;7.30;;;6.50;;
11344;SDS011;5727;42.600;23.028;2024-03-25T06:40:28;7.70;;;6.90;;
11344;SDS011;5727;42.600;23.028;2024-03-25T06:42:55;8.53;;;7.53;;
11344;SDS011;5727;42.600;23.028;2024-03-25T06:45:21;8.03;;;7.23;;
11344;SDS011;5727;42.600;23.028;2024-03-25T06:47:47;8.90;;;7.67;;
11344;SDS011;5727;42.600;23.028;2024-03-25T06:50:13;7.87;;;7.10;;
11344;SDS011;5727;42.600;23.028;2024-03-25T06:52:39;8.30;;;7.50;;
11344;SDS011;5727;42.600;23.028;2024-03-25T06:55:05;8.27;;;7.40;;
11344;SDS011;5727;42.600;23.028;2024-03-25T06:57:31;9.33;;;8.30;;
11344;SDS011;5727;42.600;23.028;2024-03-25T06:59:59;9.40;;;8.30;;
11344;SDS011;5727;42.600;23.028;2024-03-25T07:02:25;8.67;;;7.77;;
11344;SDS011;5727;42.600;23.028;2024-03-25T07:04:51;8.87;;;7.97;;
11344;SDS011;5727;42.600;23.028;2024-03-25T07:07:17;7.87;;;7.07;;
11344;SDS011;5727;42.600;23.028;2024-03-25T07:09:42;8.73;;;7.73;;
11344;SDS011;5727;42.600;23.028;2024-03-25T07:12:10;9.40;;;8.33;;
11344;SDS011;5727;42.600;23.028;2024-03-25T07:14:36;8.43;;;6.80;;
11344;SDS011;5727;42.600;23.028;2024-03-25T07:17:04;10.60;;;7.50;;
11344;SDS011;5727;42.600;23.028;2024-03-25T07:19:29;7.27;;;6.57;;
11344;SDS011;5727;42.600;23.028;2024-03-25T07:21:55;8.23;;;7.53;;
11344;SDS011;5727;42.600;23.028;2024-03-25T07:24:21;8.37;;;7.63;;
11344;SDS011;5727;42.600;23.028;2024-03-25T07:26:47;9.00;;;8.03;;
11344;SDS011;5727;42.600;23.028;2024-03-25T07:29:15;8.47;;;7.30;;
11344;SDS011;5727;42.600;23.028;2024-03-25T07:31:41;8.07;;;7.23;;
11344;SDS011;5727;42.600;23.028;2024-03-25T07:34:09;7.83;;;7.07;;
11344;SDS011;5727;42.600;23.028;2024-03-25T07:36:35;7.30;;;6.60;;
11344;SDS011;5727;42.600;23.028;2024-03-25T07:39:01;7.83;;;7.10;;
11344;SDS011;5727;42.600;23.028;2024-03-25T07:41:27;8.70;;;7.43;;
11344;SDS011;5727;42.600;23.028;2024-03-25T07:43:52;8.77;;;7.70;;
11344;SDS011;5727;42.600;23.028;2024-03-25T07:46:18;8.30;;;7.50;;
11344;SDS011;5727;42.600;23.028;2024-03-25T07:48:44;9.00;;;7.97;;
11344;SDS011;5727;42.600;23.028;2024-03-25T07:51:12;8.57;;;7.67;;
11344;SDS011;5727;42.600;23.028;2024-03-25T07:53:38;7.93;;;7.23;;
11344;SDS011;5727;42.600;23.028;2024-03-25T07:56:04;8.47;;;7.50;;
11344;SDS011;5727;42.600;23.028;2024-03-25T07:58:30;8.00;;;7.20;;
11344;SDS011;5727;42.600;23.028;2024-03-25T08:00:56;8.97;;;8.07;;
11344;SDS011;5727;42.600;23.028;2024-03-25T08:03:22;9.37;;;8.47;;
11344;SDS011;5727;42.600;23.028;2024-03-25T08:05:48;7.50;;;6.80;;
11344;SDS011;5727;42.600;23.028;2024-03-25T08:08:16;8.73;;;7.93;;
11344;SDS011;5727;42.600;23.028;2024-03-25T08:10:41;7.67;;;6.83;;
11344;SDS011;5727;42.600;23.028;2024-03-25T08:13:07;9.20;;;8.30;;
11344;SDS011;5727;42.600;23.028;2024-03-25T08:15:33;8.40;;;7.50;;
11344;SDS011;5727;42.600;23.028;2024-03-25T08:17:59;8.40;;;7.60;;
11344;SDS011;5727;42.600;23.028;2024-03-25T08:20:25;8.03;;;7.27;;
11344;SDS011;5727;42.600;23.028;2024-03-25T08:22:51;7.47;;;6.60;;
11344;SDS011;5727;42.600;23.028;2024-03-25T08:25:18;8.67;;;7.50;;
11344;SDS011;5727;42.600;23.028;2024-03-25T08:27:44;7.83;;;6.87;;
11344;SDS011;5727;42.600;23.028;2024-03-25T08:30:10;7.57;;;6.87;;
11344;SDS011;5727;42.600;23.028;2024-03-25T08:32:37;6.67;;;6.07;;
11344;SDS011;5727;42.600;23.028;2024-03-25T08:35:03;6.40;;;5.80;;
11344;SDS011;5727;42.600;23.028;2024-03-25T08:37:29;7.17;;;6.57;;
11344;SDS011;5727;42.600;23.028;2024-03-25T08:39:55;8.37;;;7.60;;
11344;SDS011;5727;42.600;23.028;2024-03-25T08:42:23;7.00;;;6.27;;
11344;SDS011;5727;42.600;23.028;2024-03-25T08:44:49;7.10;;;6.47;;
11344;SDS011;5727;42.600;23.028;2024-03-25T08:47:14;7.73;;;6.93;;
11344;SDS011;5727;42.600;23.028;2024-03-25T08:49:40;5.97;;;5.47;;
11344;SDS011;5727;42.600;23.028;2024-03-25T08:52:06;6.73;;;6.10;;
11344;SDS011;5727;42.600;23.028;2024-03-25T08:54:32;7.80;;;7.10;;
11344;SDS011;5727;42.600;23.028;2024-03-25T08:56:58;6.63;;;6.03;;
11344;SDS011;5727;42.600;23.028;2024-03-25T08:59:25;6.83;;;6.13;;
11344;SDS011;5727;42.600;23.028;2024-03-25T09:01:51;7.10;;;6.47;;
11344;SDS011;5727;42.600;23.028;2024-03-25T09:04:17;6.77;;;6.27;;
11344;SDS011;5727;42.600;23.028;2024-03-25T09:06:43;9.20;;;5.87;;
11344;SDS011;5727;42.600;23.028;2024-03-25T09:09:09;8.17;;;6.53;;
11344;SDS011;5727;42.600;23.028;2024-03-25T09:11:54;7.40;;;6.70;;
11344;SDS011;5727;42.600;23.028;2024-03-25T09:14:20;7.70;;;7.00;;
11344;SDS011;5727;42.600;23.028;2024-03-25T09:16:47;7.47;;;6.77;;
11344;SDS011;5727;42.600;23.028;2024-03-25T09:19:13;8.07;;;7.27;;
11344;SDS011;5727;42.600;23.028;2024-03-25T09:21:39;8.40;;;7.60;;
11344;SDS011;5727;42.600;23.028;2024-03-25T09:24:05;8.13;;;7.23;;
11344;SDS011;5727;42.600;23.028;2024-03-25T09:26:31;7.60;;;6.80;;
11344;SDS011;5727;42.600;23.028;2024-03-25T09:28:57;6.20;;;5.70;;
11344;SDS011;5727;42.600;23.028;2024-03-25T09:31:23;7.50;;;6.80;;
11344;SDS011;5727;42.600;23.028;2024-03-25T09:33:51;8.00;;;7.30;;
11344;SDS011;5727;42.600;23.028;2024-03-25T09:36:17;7.50;;;6.80;;
11344;SDS011;5727;42.600;23.028;2024-03-25T09:38:42;8.53;;;6.80;;
11344;SDS011;5727;42.600;23.028;2024-03-25T09:41:08;5.27;;;4.80;;
11344;SDS011;5727;42.600;23.028;2024-03-25T09:43:37;6.37;;;5.77;;
11344;SDS011;5727;42.600;23.028;2024-03-25T09:46:08;5.23;;;4.73;;
11344;SDS011;5727;42.600;23.028;2024-03-25T09:48:34;6.37;;;5.80;;
11344;SDS011;5727;42.600;23.028;2024-03-25T09:51:03;7.13;;;6.50;;
11344;SDS011;5727;42.600;23.028;2024-03-25T09:53:30;5.07;;;4.67;;
11344;SDS011;5727;42.600;23.028;2024-03-25T09:55:56;6.03;;;5.57;;
11344;SDS011;5727;42.600;23.028;2024-03-25T09:58:23;6.50;;;5.93;;
11344;SDS011;5727;42.600;23.028;2024-03-25T10:00:50;5.53;;;5.10;;
11344;SDS011;5727;42.600;23.028;2024-03-25T10:03:16;6.10;;;5.50;;
11344;SDS011;5727;42.600;23.028;2024-03-25T10:05:42;5.60;;;5.10;;
11344;SDS011;5727;42.600;23.028;2024-03-25T10:08:10;5.37;;;4.87;;
11344;SDS011;5727;42.600;23.028;2024-03-25T10:10:36;6.40;;;5.90;;
11344;SDS011;5727;42.600;23.028;2024-03-25T10:13:02;5.23;;;4.73;;
11344;SDS011;5727;42.600;23.028;2024-03-25T10:15:29;6.30;;;5.70;;
11344;SDS011;5727;42.600;23.028;2024-03-25T10:17:55;6.47;;;5.97;;
11344;SDS011;5727;42.600;23.028;2024-03-25T10:20:21;5.60;;;5.10;;
11344;SDS011;5727;42.600;23.028;2024-03-25T10:22:47;5.77;;;5.33;;
11344;SDS011;5727;42.600;23.028;2024-03-25T10:25:21;4.87;;;4.57;;
11344;SDS011;5727;42.600;23.028;2024-03-25T10:27:55;5.23;;;4.83;;
11344;SDS011;5727;42.600;23.028;2024-03-25T10:30:22;5.03;;;4.70;;
11344;SDS011;5727;42.600;23.028;2024-03-25T10:32:57;5.63;;;4.90;;
11344;SDS011;5727;42.600;23.028;2024-03-25T10:35:25;5.37;;;4.97;;
11344;SDS011;5727;42.600;23.028;2024-03-25T10:37:52;5.13;;;4.63;;
11344;SDS011;5727;42.600;23.028;2024-03-25T10:40:23;5.53;;;5.03;;
11344;SDS011;5727;42.600;23.028;2024-03-25T10:42:54;5.73;;;5.23;;
11344;SDS011;5727;42.600;23.028;2024-03-25T10:45:26;4.70;;;4.30;;
11344;SDS011;5727;42.600;23.028;2024-03-25T10:47:54;5.37;;;4.90;;
11344;SDS011;5727;42.600;23.028;2024-03-25T10:50:23;5.70;;;5.20;;
11344;SDS011;5727;42.600;23.028;2024-03-25T10:52:51;5.80;;;5.30;;
11344;SDS011;5727;42.600;23.028;2024-03-25T10:55:19;6.43;;;4.73;;
11344;SDS011;5727;42.600;23.028;2024-03-25T10:57:48;5.53;;;5.03;;
11344;SDS011;5727;42.600;23.028;2024-03-25T11:00:14;5.23;;;4.73;;
11344;SDS011;5727;42.600;23.028;2024-03-25T11:02:41;4.63;;;4.30;;
11344;SDS011;5727;42.600;23.028;2024-03-25T11:05:08;4.90;;;4.43;;
11344;SDS011;5727;42.600;23.028;2024-03-25T11:07:35;5.43;;;5.03;;
11344;SDS011;5727;42.600;23.028;2024-03-25T11:10:05;5.17;;;4.77;;
11344;SDS011;5727;42.600;23.028;2024-03-25T11:12:34;5.07;;;4.67;;
11344;SDS011;5727;42.600;23.028;2024-03-25T11:15:02;5.00;;;4.60;;
11344;SDS011;5727;42.600;23.028;2024-03-25T11:17:30;5.03;;;4.63;;
11344;SDS011;5727;42.600;23.028;2024-03-25T11:20:05;4.37;;;4.07;;
11344;SDS011;5727;42.600;23.028;2024-03-25T11:22:32;4.27;;;3.87;;
11344;SDS011;5727;42.600;23.028;2024-03-25T11:25:04;6.17;;;5.00;;
11344;SDS011;5727;42.600;23.028;2024-03-25T11:27:31;4.70;;;4.30;;
11344;SDS011;5727;42.600;23.028;2024-03-25T11:29:57;5.20;;;4.80;;
11344;SDS011;5727;42.600;23.028;2024-03-25T11:32:25;4.80;;;4.47;;
11344;SDS011;5727;42.600;23.028;2024-03-25T11:34:52;4.87;;;4.57;;
11344;SDS011;5727;42.600;23.028;2024-03-25T11:37:18;5.50;;;5.10;;
11344;SDS011;5727;42.600;23.028;2024-03-25T11:39:44;5.50;;;5.00;;
11344;SDS011;5727;42.600;23.028;2024-03-25T11:42:10;4.80;;;4.40;;
11344;SDS011;5727;42.600;23.028;2024-03-25T11:44:38;4.23;;;3.93;;
11344;SDS011;5727;42.600;23.028;2024-03-25T11:47:05;4.27;;;3.97;;
11344;SDS011;5727;42.600;23.028;2024-03-25T11:49:34;4.53;;;4.23;;
11344;SDS011;5727;42.600;23.028;2024-03-25T11:52:06;4.73;;;4.33;;
11344;SDS011;5727;42.600;23.028;2024-03-25T11:54:32;4.40;;;4.10;;
11344;SDS011;5727;42.600;23.028;2024-03-25T11:56:58;4.47;;;4.17;;
11344;SDS011;5727;42.600;23.028;2024-03-25T11:59:24;5.10;;;3.97;;
11344;SDS011;5727;42.600;23.028;2024-03-25T12:01:50;4.63;;;4.03;;
11344;SDS011;5727;42.600;23.028;2024-03-25T12:04:17;4.50;;;4.10;;
11344;SDS011;5727;42.600;23.028;2024-03-25T12:06:44;4.57;;;4.20;;
11344;SDS011;5727;42.600;23.028;2024-03-25T12:09:10;4.57;;;4.23;;
11344;SDS011;5727;42.600;23.028;2024-03-25T12:11:55;4.77;;;4.37;;
11344;SDS011;5727;42.600;23.028;2024-03-25T12:14:21;4.73;;;4.37;;
11344;SDS011;5727;42.600;23.028;2024-03-25T12:16:47;3.90;;;3.70;;
11344;SDS011;5727;42.600;23.028;2024-03-25T12:19:14;3.77;;;3.50;;
11344;SDS011;5727;42.600;23.028;2024-03-25T12:21:40;4.20;;;3.90;;
11344;SDS011;5727;42.600;23.028;2024-03-25T12:24:08;3.20;;;2.93;;
11344;SDS011;5727;42.600;23.028;2024-03-25T12:26:34;3.67;;;3.37;;
11344;SDS011;5727;42.600;23.028;2024-03-25T12:29:00;3.10;;;2.80;;
11344;SDS011;5727;42.600;23.028;2024-03-25T12:31:26;3.07;;;2.47;;
11344;SDS011;5727;42.600;23.028;2024-03-25T12:33:52;3.57;;;3.27;;
11344;SDS011;5727;42.600;23.028;2024-03-25T12:36:19;2.67;;;2.47;;
11344;SDS011;5727;42.600;23.028;2024-03-25T12:38:53;2.87;;;2.67;;
11344;SDS011;5727;42.600;23.028;2024-03-25T12:41:21;2.53;;;2.40;;
11344;SDS011;5727;42.600;23.028;2024-03-25T12:43:49;2.90;;;2.70;;
11344;SDS011;5727;42.600;23.028;2024-03-25T12:46:16;3.10;;;2.90;;
11344;SDS011;5727;42.600;23.028;2024-03-25T12:48:42;3.27;;;3.07;;
11344;SDS011;5727;42.600;23.028;2024-03-25T12:51:11;3.50;;;3.27;;
11344;SDS011;5727;42.600;23.028;2024-03-25T12:53:38;3.17;;;2.97;;
11344;SDS011;5727;42.600;23.028;2024-03-25T12:56:04;3.00;;;2.80;;
11344;SDS011;5727;42.600;23.028;2024-03-25T12:58:32;2.57;;;2.47;;
11344;SDS011;5727;42.600;23.028;2024-03-25T13:00:58;2.87;;;2.70;;
11344;SDS011;5727;42.600;23.028;2024-03-25T13:03:25;3.20;;;3.00;;
11344;SDS011;5727;42.600;23.028;2024-03-25T13:05:51;3.10;;;2.90;;
11344;SDS011;5727;42.600;23.028;2024-03-25T13:08:17;3.00;;;2.70;;
11344;SDS011;5727;42.600;23.028;2024-03-25T13:10:43;3.27;;;3.07;;
11344;SDS011;5727;42.600;23.028;2024-03-25T13:13:09;3.00;;;2.80;;
11344;SDS011;5727;42.600;23.028;2024-03-25T13:15:36;2.70;;;2.50;;
11344;SDS011;5727;42.600;23.028;2024-03-25T13:18:03;2.47;;;2.27;;
11344;SDS011;5727;42.600;23.028;2024-03-25T13:20:29;3.30;;;3.00;;
11344;SDS011;5727;42.600;23.028;2024-03-25T13:22:55;3.30;;;3.10;;
11344;SDS011;5727;42.600;23.028;2024-03-25T13:25:21;2.20;;;2.10;;
11344;SDS011;5727;42.600;23.028;2024-03-25T13:27:47;2.33;;;2.20;;
11344;SDS011;5727;42.600;23.028;2024-03-25T13:30:13;2.57;;;2.37;;
11344;SDS011;5727;42.600;23.028;2024-03-25T13:32:40;1.70;;;1.60;;
11344;SDS011;5727;42.600;23.028;2024-03-25T13:35:06;2.30;;;2.10;;
11344;SDS011;5727;42.600;23.028;2024-03-25T13:37:32;2.23;;;2.03;;
11344;SDS011;5727;42.600;23.028;2024-03-25T13:39:58;2.10;;;2.00;;
11344;SDS011;5727;42.600;23.028;2024-03-25T13:42:24;2.40;;;2.20;;
11344;SDS011;5727;42.600;23.028;2024-03-25T13:44:50;2.43;;;2.23;;
11344;SDS011;5727;42.600;23.028;2024-03-25T13:47:16;2.50;;;2.30;;
11344;SDS011;5727;42.600;23.028;2024-03-25T13:49:44;2.60;;;2.37;;
11344;SDS011;5727;42.600;23.028;2024-03-25T13:52:13;1.87;;;1.70;;
11344;SDS011;5727;42.600;23.028;2024-03-25T13:54:39;2.00;;;1.90;;
11344;SDS011;5727;42.600;23.028;2024-03-25T13:57:05;2.37;;;2.17;;
11344;SDS011;5727;42.600;23.028;2024-03-25T13:59:31;2.33;;;2.17;;
11344;SDS011;5727;42.600;23.028;2024-03-25T14:01:57;2.57;;;2.37;;
11344;SDS011;5727;42.600;23.028;2024-03-25T14:04:23;2.30;;;2.20;;
11344;SDS011;5727;42.600;23.028;2024-03-25T14:06:50;2.37;;;2.20;;
11344;SDS011;5727;42.600;23.028;2024-03-25T14:09:23;1.93;;;1.83;;
11344;SDS011;5727;42.600;23.028;2024-03-25T14:11:49;2.07;;;1.97;;
11344;SDS011;5727;42.600;23.028;2024-03-25T14:14:15;2.30;;;2.20;;
11344;SDS011;5727;42.600;23.028;2024-03-25T14:16:41;2.03;;;1.93;;
11344;SDS011;5727;42.600;23.028;2024-03-25T14:19:07;2.43;;;2.33;;
11344;SDS011;5727;42.600;23.028;2024-03-25T14:21:33;2.97;;;2.20;;
11344;SDS011;5727;42.600;23.028;2024-03-25T14:24:00;1.93;;;1.83;;
11344;SDS011;5727;42.600;23.028;2024-03-25T14:26:27;2.40;;;2.20;;
11344;SDS011;5727;42.600;23.028;2024-03-25T14:28:53;2.13;;;2.00;;
11344;SDS011;5727;42.600;23.028;2024-03-25T14:31:19;2.57;;;2.37;;
11344;SDS011;5727;42.600;23.028;2024-03-25T14:33:44;1.90;;;1.80;;
11344;SDS011;5727;42.600;23.028;2024-03-25T14:36:10;2.17;;;2.07;;
11344;SDS011;5727;42.600;23.028;2024-03-25T14:38:36;4.93;;;2.10;;
11344;SDS011;5727;42.600;23.028;2024-03-25T14:41:04;2.50;;;2.30;;
11344;SDS011;5727;42.600;23.028;2024-03-25T14:43:30;3.07;;;2.50;;
11344;SDS011;5727;42.600;23.028;2024-03-25T14:45:56;2.20;;;2.00;;